This is the latest recevied weather packets stored in our database for station/object AG1T-20. If no packets are shown the sender has not sent any weather packets the latest 10 day(s).
| Time | Temp. | Humidity | Pressure | Rain* | Wind** | Luminosity | Snow |
|---|---|---|---|---|---|---|---|
| 1787564405 | 20.56° C | 54% | 1021.8 hPa | 0 mm | - | 0 W/m² | - |
| 1787563804 | 21.11° C | 50% | 1021.8 hPa | 0 mm | - | 0 W/m² | - |
| 1787563205 | 21.11° C | 49% | 1021.8 hPa | 0 mm | - | 0 W/m² | - |
| 1787562605 | 21.67° C | 49% | 1021.8 hPa | 0 mm | - | 0 W/m² | - |
| 1787562004 | 21.11° C | 50% | 1021.8 hPa | 0 mm | - | 0 W/m² | - |
| 1787561405 | 21.11° C | 50% | 1021.9 hPa | 0 mm | - | 0 W/m² | - |
| 1787560804 | 21.67° C | 49% | 1021.9 hPa | 0 mm | - | 0 W/m² | - |
| 1787560204 | 21.67° C | 50% | 1021.9 hPa | 0 mm | - | 0 W/m² | - |
| 1787559605 | 21.11° C | 51% | 1021.9 hPa | 0 mm | - | 0 W/m² | - |
| 1787559004 | 21.67° C | 49% | 1021.9 hPa | 0 mm | - | 0 W/m² | - |
| 1787558405 | 21.67° C | 49% | 1021.9 hPa | 0 mm | - | 0 W/m² | - |
| 1787557805 | 21.67° C | 48% | 1022.4 hPa | 0 mm | - | 0 W/m² | - |
| 1787557205 | 21.11° C | 50% | 1022.4 hPa | 0 mm | - | 0 W/m² | - |
| 1787556605 | 21.67° C | 48% | 1022.4 hPa | 0 mm | - | 0 W/m² | - |
| 1787556004 | 21.67° C | 49% | 1022.4 hPa | 0 mm | - | 0 W/m² | - |
| 1787555404 | 22.22° C | 45% | 1022.4 hPa | 0 mm | - | 0 W/m² | - |
| 1787554805 | 21.67° C | 48% | 1022.4 hPa | 0 mm | - | 0 W/m² | - |
| 1787554205 | 22.22° C | 44% | 1022.3 hPa | 0 mm | - | 0 W/m² | - |
| 1787553604 | 22.78° C | 43% | 1022.3 hPa | 0 mm | - | 0 W/m² | - |
| 1787553005 | 22.22° C | 46% | 1022.3 hPa | 0 mm | - | 0 W/m² | - |
| 1787552404 | 22.78° C | 43% | 1022.3 hPa | 0 mm | - | 0 W/m² | - |
| 1787551804 | 22.78° C | 43% | 1022.3 hPa | 0 mm | - | 0 W/m² | - |
| 1787551205 | 23.89° C | 38% | 1022.3 hPa | 0 mm | - | 0 W/m² | - |
| 1787550604 | 23.33° C | 40% | 1023 hPa | 0 mm | - | 0 W/m² | - |
| 1787550007 | 22.78° C | 43% | 1023 hPa | 0 mm | - | 0 W/m² | - |
* Rain latest hour (hover to see other rain measurements)
** Current wind speed in m/s (hover to see current wind gust speed)